createdAt,value
2022-08-18T00:01:20.072Z,29.07
2022-08-18T00:03:56.330Z,29.01
2022-08-18T00:06:29.923Z,29.13
2022-08-18T00:08:58.875Z,29.23
2022-08-18T00:11:25.998Z,29.10
2022-08-18T00:13:53.165Z,28.53
2022-08-18T00:16:20.069Z,27.78
2022-08-18T00:18:46.984Z,28.29
2022-08-18T00:21:13.912Z,28.59
2022-08-18T00:23:40.892Z,28.51
2022-08-18T00:26:07.818Z,28.42
2022-08-18T00:28:34.894Z,28.76
2022-08-18T00:31:01.886Z,28.90
2022-08-18T00:33:28.785Z,28.50
2022-08-18T00:35:56.789Z,27.95
2022-08-18T00:38:25.349Z,28.28
2022-08-18T00:40:54.200Z,28.61
2022-08-18T00:43:48.691Z,28.73
2022-08-18T00:46:22.168Z,28.59
2022-08-18T00:48:49.874Z,28.35
2022-08-18T00:51:29.949Z,28.51
2022-08-18T00:54:02.499Z,28.68
2022-08-18T00:56:36.833Z,28.32
2022-08-18T00:59:08.337Z,27.95
2022-08-18T01:01:35.504Z,27.98
2022-08-18T01:04:06.621Z,28.08
2022-08-18T01:06:40.165Z,28.38
2022-08-18T01:09:08.694Z,28.65
2022-08-18T01:11:38.382Z,28.27
2022-08-18T01:14:06.645Z,27.81
2022-08-18T01:16:56.834Z,28.02
2022-08-18T01:19:44.222Z,28.36
2022-08-18T01:22:19.843Z,28.46
2022-08-18T01:25:05.097Z,28.40
2022-08-18T01:27:32.499Z,28.27
2022-08-18T01:30:07.627Z,28.22
2022-08-18T01:32:34.609Z,28.03
2022-08-18T01:35:01.581Z,27.66
2022-08-18T01:37:29.129Z,27.56
2022-08-18T01:41:24.577Z,27.16
2022-08-18T01:42:43.629Z,27.03
2022-08-18T01:45:12.359Z,27.00
2022-08-18T01:47:47.813Z,27.24
2022-08-18T01:50:25.025Z,26.94
2022-08-18T01:52:53.866Z,27.44
2022-08-18T01:55:21.351Z,27.06
2022-08-18T01:57:48.312Z,26.88
2022-08-18T02:00:17.576Z,27.03
2022-08-18T02:02:44.671Z,26.96
2022-08-18T02:05:15.179Z,27.31
2022-08-18T02:07:42.640Z,27.17
2022-08-18T02:10:12.484Z,26.97
2022-08-18T02:12:43.940Z,27.37
2022-08-18T02:15:12.158Z,28.01
2022-08-18T02:17:40.105Z,27.58
2022-08-18T02:20:08.910Z,28.10
2022-08-18T02:22:36.025Z,27.79
2022-08-18T02:25:03.153Z,27.23
2022-08-18T02:27:30.278Z,27.54
2022-08-18T02:30:00.074Z,27.47
2022-08-18T02:32:28.599Z,27.36
2022-08-18T02:34:56.525Z,27.49
2022-08-18T02:37:23.476Z,27.31
2022-08-18T02:39:50.461Z,28.62
2022-08-18T02:42:18.110Z,28.84
2022-08-18T02:44:45.087Z,28.31
2022-08-18T02:47:12.077Z,28.37
2022-08-18T02:49:39.265Z,27.96
2022-08-18T02:52:06.338Z,28.10
2022-08-18T02:54:33.629Z,28.62
2022-08-18T02:57:00.541Z,28.04
2022-08-18T02:59:27.994Z,27.73
2022-08-18T03:01:59.039Z,27.79
2022-08-18T03:04:29.878Z,27.33
2022-08-18T03:06:59.424Z,27.59
2022-08-18T03:09:27.092Z,27.21
2022-08-18T03:11:54.759Z,26.28
2022-08-18T03:14:22.148Z,26.44
2022-08-18T03:16:53.641Z,26.78
2022-08-18T03:19:23.358Z,26.89
2022-08-18T03:21:51.151Z,26.04
2022-08-18T03:24:23.013Z,26.15
2022-08-18T03:26:52.441Z,26.16
2022-08-18T03:29:19.864Z,26.31
2022-08-18T03:31:48.930Z,26.67
2022-08-18T03:34:19.923Z,26.45
2022-08-18T03:36:48.006Z,26.48
2022-08-18T03:39:15.020Z,27.70
2022-08-18T03:41:58.634Z,28.40
2022-08-18T03:44:31.440Z,27.98
2022-08-18T03:46:58.721Z,27.58
2022-08-18T03:49:27.050Z,28.04
2022-08-18T03:51:57.228Z,27.14
2022-08-18T03:54:24.349Z,27.01
2022-08-18T03:56:51.282Z,27.42
2022-08-18T03:59:21.574Z,26.34
2022-08-18T04:01:50.274Z,26.25
2022-08-18T04:04:20.181Z,27.21
2022-08-18T04:06:50.601Z,26.54
2022-08-18T04:09:18.672Z,27.01
2022-08-18T04:11:46.111Z,25.66
2022-08-18T04:14:15.759Z,25.37
2022-08-18T04:16:43.112Z,26.51
2022-08-18T04:19:13.602Z,26.98
2022-08-18T04:21:42.442Z,26.99
2022-08-18T04:24:11.606Z,28.34
2022-08-18T04:26:44.141Z,28.33
2022-08-18T04:29:13.016Z,27.51
2022-08-18T04:31:40.235Z,27.46
2022-08-18T04:34:07.545Z,28.23
2022-08-18T04:36:35.966Z,27.25
2022-08-18T04:39:05.267Z,28.87
2022-08-18T04:41:32.231Z,29.49
2022-08-18T04:44:01.367Z,28.98
2022-08-18T04:46:29.806Z,28.38
2022-08-18T04:48:59.433Z,28.67
2022-08-18T04:52:36.099Z,28.14
2022-08-18T04:54:16.644Z,28.32
2022-08-18T04:56:43.760Z,27.70
2022-08-18T04:59:14.901Z,29.04
2022-08-18T05:01:45.758Z,29.23
2022-08-18T05:04:14.468Z,30.31
2022-08-18T05:06:43.515Z,31.14
2022-08-18T05:09:12.524Z,31.93
2022-08-18T05:11:44.701Z,32.56
2022-08-18T05:14:12.122Z,33.13
2022-08-18T05:16:48.030Z,33.26
2022-08-18T05:19:19.963Z,34.02
2022-08-18T05:21:53.572Z,34.45
2022-08-18T05:24:33.555Z,35.45
2022-08-18T05:27:04.151Z,36.19
2022-08-18T05:29:41.937Z,36.58
2022-08-18T05:32:41.044Z,34.41
2022-08-18T05:35:15.774Z,33.61
2022-08-18T05:37:54.563Z,35.15
2022-08-18T05:40:24.588Z,35.87
2022-08-18T05:42:51.599Z,37.02
2022-08-18T05:45:19.874Z,36.36
2022-08-18T05:47:46.885Z,36.15
2022-08-18T05:50:18.513Z,34.68
2022-08-18T05:52:59.651Z,33.96
2022-08-18T05:55:50.631Z,31.19
2022-08-18T05:58:48.612Z,32.05
2022-08-18T06:01:27.806Z,31.89
2022-08-18T06:04:02.522Z,31.70
2022-08-18T06:06:31.167Z,31.41
2022-08-18T06:09:19.307Z,30.63
2022-08-18T06:11:47.469Z,30.51
2022-08-18T06:14:14.531Z,31.86
2022-08-18T06:17:03.405Z,32.56
2022-08-18T06:19:49.637Z,32.31
2022-08-18T06:22:48.170Z,31.33
2022-08-18T06:25:27.518Z,31.12
2022-08-18T06:28:08.230Z,31.85
2022-08-18T06:30:35.125Z,32.11
2022-08-18T06:33:33.856Z,32.57
2022-08-18T06:36:14.491Z,32.76
2022-08-18T06:39:16.865Z,32.21
2022-08-18T06:41:49.309Z,31.24
2022-08-18T06:44:57.556Z,30.93
2022-08-18T06:47:41.026Z,31.61
2022-08-18T06:50:13.938Z,31.59
2022-08-18T06:52:54.141Z,31.26
2022-08-18T06:55:39.217Z,31.89
2022-08-18T06:58:22.604Z,31.84
2022-08-18T07:00:54.973Z,32.86
2022-08-18T07:03:44.980Z,33.07
2022-08-18T07:06:23.789Z,33.02
2022-08-18T07:08:53.693Z,34.26
2022-08-18T07:11:25.056Z,34.72
2022-08-18T07:14:15.024Z,33.12
2022-08-18T07:16:59.586Z,34.01
2022-08-18T07:19:30.397Z,32.14
2022-08-18T07:22:08.672Z,33.25
2022-08-18T07:24:47.671Z,32.79
2022-08-18T07:27:18.894Z,33.12
2022-08-18T07:30:13.934Z,33.08
2022-08-18T07:32:53.676Z,32.42
2022-08-18T07:35:45.781Z,31.44
2022-08-18T07:38:41.861Z,30.29
2022-08-18T07:41:19.287Z,30.77
2022-08-18T07:43:52.071Z,31.94
2022-08-18T07:46:23.599Z,32.42
2022-08-18T07:48:50.569Z,31.93
2022-08-18T07:51:24.372Z,32.01
2022-08-18T07:54:04.979Z,33.76
2022-08-18T07:56:48.147Z,34.52
2022-08-18T07:59:48.601Z,32.73
2022-08-18T08:02:20.211Z,34.19
2022-08-18T08:05:02.217Z,35.40
2022-08-18T08:07:59.237Z,35.89
2022-08-18T08:10:33.321Z,35.47
2022-08-18T08:13:09.944Z,36.15
2022-08-18T08:15:44.240Z,36.20
2022-08-18T08:18:20.255Z,36.25
2022-08-18T08:20:54.607Z,36.76
2022-08-18T08:24:00.319Z,36.55
2022-08-18T08:26:48.686Z,34.91
2022-08-18T08:29:36.947Z,36.35
2022-08-18T08:32:09.342Z,36.56
2022-08-18T08:34:41.196Z,36.30
2022-08-18T08:37:19.025Z,36.31
2022-08-18T08:39:55.517Z,36.13
2022-08-18T08:43:09.009Z,35.57
2022-08-18T08:45:39.715Z,35.48
2022-08-18T08:48:28.473Z,36.15
2022-08-18T08:51:10.198Z,36.72
2022-08-18T08:53:47.401Z,37.65
2022-08-18T08:56:16.508Z,38.00
2022-08-18T08:58:52.498Z,37.24
2022-08-18T09:01:48.019Z,38.33
2022-08-18T09:04:21.262Z,38.07
2022-08-18T09:06:53.789Z,36.99
2022-08-18T09:09:42.720Z,36.57
2022-08-18T09:12:37.589Z,36.82
2022-08-18T09:15:19.583Z,37.74
2022-08-18T09:17:50.895Z,38.04
2022-08-18T09:20:36.991Z,38.01
2022-08-18T09:23:18.714Z,38.31
2022-08-18T09:25:49.744Z,37.83
2022-08-18T09:28:20.143Z,39.72
2022-08-18T09:31:02.644Z,39.71
2022-08-18T09:33:44.267Z,38.77
2022-08-18T09:36:54.388Z,37.60
2022-08-18T09:40:14.500Z,37.52
2022-08-18T09:42:55.268Z,38.64
2022-08-18T09:45:33.567Z,38.18
2022-08-18T09:48:31.704Z,37.30
2022-08-18T09:51:17.539Z,37.50
2022-08-18T09:53:48.041Z,37.18
2022-08-18T09:56:19.597Z,37.27
2022-08-18T09:59:00.502Z,37.01
2022-08-18T10:01:30.508Z,37.76
2022-08-18T10:04:15.516Z,37.60
2022-08-18T10:06:55.559Z,37.00
2022-08-18T10:09:36.530Z,37.68
2022-08-18T10:12:41.703Z,36.83
2022-08-18T10:15:33.265Z,36.69
2022-08-18T10:18:45.216Z,38.22
2022-08-18T10:21:21.049Z,38.32
2022-08-18T10:26:38.476Z,37.52
2022-08-18T10:29:08.947Z,37.27
2022-08-18T10:31:58.648Z,37.85
2022-08-18T10:34:40.829Z,37.57
2022-08-18T10:37:26.764Z,37.43
2022-08-18T10:39:59.329Z,38.45
2022-08-18T10:42:34.243Z,38.83
2022-08-18T10:48:30.723Z,38.40
2022-08-18T10:51:59.451Z,38.36
2022-08-18T10:54:32.245Z,38.04
2022-08-18T10:57:13.254Z,38.67
2022-08-18T10:59:54.618Z,38.66
2022-08-18T11:03:01.907Z,39.07
2022-08-18T11:05:31.809Z,38.19
2022-08-18T11:08:03.042Z,38.82
2022-08-18T11:11:32.718Z,38.78
2022-08-18T11:13:56.669Z,38.39
2022-08-18T11:16:46.209Z,38.04
2022-08-18T11:19:14.802Z,39.01
2022-08-18T11:21:51.230Z,38.94
2022-08-18T11:24:23.332Z,39.50
2022-08-18T11:26:57.129Z,39.10
2022-08-18T11:29:39.785Z,39.05
2022-08-18T11:32:22.285Z,39.57
2022-08-18T11:35:03.550Z,38.55
2022-08-18T11:37:51.527Z,40.41
2022-08-18T11:41:08.930Z,39.29
2022-08-18T11:43:24.978Z,39.46
2022-08-18T11:45:59.779Z,40.08
2022-08-18T11:48:46.427Z,40.51
2022-08-18T11:51:17.670Z,40.85
2022-08-18T11:54:23.259Z,40.46
2022-08-18T11:56:51.580Z,42.00
2022-08-18T12:02:25.562Z,40.56
2022-08-18T12:04:57.742Z,40.33
2022-08-18T12:07:33.921Z,41.38
2022-08-18T12:13:24.645Z,41.04
2022-08-18T12:16:12.109Z,41.02
2022-08-18T12:18:39.070Z,40.11
2022-08-18T12:21:06.460Z,41.34
2022-08-18T12:26:38.465Z,41.51
2022-08-18T12:29:11.011Z,41.69
2022-08-18T12:31:42.649Z,41.00
2022-08-18T12:34:26.298Z,39.35
2022-08-18T12:36:56.742Z,39.69
2022-08-18T12:42:11.612Z,42.40
2022-08-18T12:44:41.584Z,41.94
2022-08-18T12:47:16.731Z,42.33
2022-08-18T12:49:43.881Z,42.44
2022-08-18T12:52:14.048Z,42.27
2022-08-18T12:54:55.267Z,42.30
2022-08-18T12:57:52.204Z,42.13
2022-08-18T13:00:16.867Z,42.44
2022-08-18T13:02:45.776Z,41.72
2022-08-18T13:05:12.765Z,41.94
2022-08-18T13:07:39.698Z,41.57
2022-08-18T13:10:07.189Z,42.02
2022-08-18T13:12:48.594Z,41.71
2022-08-18T13:15:16.852Z,42.29
2022-08-18T13:17:46.836Z,42.18
2022-08-18T13:20:16.824Z,42.10
2022-08-18T13:22:43.753Z,42.03
2022-08-18T13:25:32.694Z,41.58
2022-08-18T13:28:01.723Z,41.19
2022-08-18T13:30:31.488Z,40.30
2022-08-18T13:33:02.260Z,39.91
2022-08-18T13:35:38.443Z,41.38
2022-08-18T13:38:26.150Z,41.43
2022-08-18T13:40:56.822Z,41.40
2022-08-18T13:43:30.334Z,41.41
2022-08-18T13:45:57.504Z,42.07
2022-08-18T13:48:25.761Z,41.09
2022-08-18T13:50:58.581Z,40.71
2022-08-18T13:53:28.731Z,40.59
2022-08-18T13:55:59.537Z,40.81
2022-08-18T13:58:29.787Z,40.91
2022-08-18T14:01:15.808Z,40.76
2022-08-18T14:03:47.188Z,40.01
2022-08-18T14:06:15.895Z,40.35
2022-08-18T14:08:49.718Z,40.13
2022-08-18T14:11:17.601Z,40.59
2022-08-18T14:13:45.215Z,40.79
2022-08-18T14:16:16.279Z,40.78
2022-08-18T14:19:09.940Z,40.39
2022-08-18T14:22:00.449Z,40.55
2022-08-18T14:24:48.832Z,40.40
2022-08-18T14:27:20.625Z,39.70
2022-08-18T14:29:49.721Z,40.35
2022-08-18T14:32:29.308Z,40.37
2022-08-18T14:35:33.528Z,40.13
2022-08-18T14:37:49.828Z,39.83
2022-08-18T14:40:17.500Z,40.79
2022-08-18T14:42:55.149Z,40.44
2022-08-18T14:45:28.010Z,40.24
2022-08-18T14:48:02.354Z,40.97
2022-08-18T14:50:33.759Z,40.62
2022-08-18T14:53:02.109Z,40.27
2022-08-18T14:55:30.534Z,40.07
2022-08-18T14:57:59.281Z,39.70
2022-08-18T15:00:27.054Z,39.37
2022-08-18T15:02:54.647Z,39.97
2022-08-18T15:05:24.407Z,39.93
2022-08-18T15:07:53.087Z,39.42
2022-08-18T15:10:23.583Z,39.65
2022-08-18T15:12:55.506Z,40.01
2022-08-18T15:15:22.907Z,39.61
2022-08-18T15:17:53.064Z,39.45
2022-08-18T15:20:28.706Z,39.32
2022-08-18T15:23:24.834Z,38.95
2022-08-18T15:25:55.218Z,38.60
2022-08-18T15:28:26.569Z,38.52
2022-08-18T15:33:41.880Z,38.37
2022-08-18T15:36:10.291Z,38.62
2022-08-18T15:38:43.014Z,38.35
2022-08-18T15:41:10.105Z,38.84
2022-08-18T15:43:46.079Z,39.68
2022-08-18T15:46:14.056Z,39.32
2022-08-18T15:48:43.988Z,39.26
2022-08-18T15:51:12.210Z,38.99
2022-08-18T15:53:44.983Z,38.72
2022-08-18T15:56:16.297Z,38.62
2022-08-18T15:58:48.226Z,38.98
2022-08-18T16:01:21.202Z,38.73
2022-08-18T16:03:57.947Z,38.95
2022-08-18T16:06:27.734Z,38.82
2022-08-18T16:08:59.846Z,39.57
2022-08-18T16:11:29.258Z,39.62
2022-08-18T16:14:01.029Z,39.83
2022-08-18T16:16:35.884Z,39.44
2022-08-18T16:19:07.107Z,39.49
2022-08-18T16:21:34.562Z,39.76
2022-08-18T16:24:01.521Z,39.82
2022-08-18T16:26:28.879Z,39.83
2022-08-18T16:28:57.486Z,40.44
2022-08-18T16:31:26.865Z,40.05
2022-08-18T16:33:55.000Z,40.41
2022-08-18T16:36:26.695Z,40.37
2022-08-18T16:38:58.148Z,39.89
2022-08-18T16:41:26.461Z,40.04
2022-08-18T16:43:53.527Z,40.02
2022-08-18T16:46:25.401Z,40.24
2022-08-18T16:48:53.306Z,40.11
2022-08-18T16:51:22.391Z,39.94
2022-08-18T16:53:52.651Z,40.03
2022-08-18T16:56:22.681Z,40.23
2022-08-18T16:59:08.604Z,40.11
2022-08-18T17:01:55.061Z,40.05
2022-08-18T17:04:23.280Z,40.62
2022-08-18T17:06:50.881Z,40.78
2022-08-18T17:09:19.483Z,39.71
2022-08-18T17:11:51.427Z,40.19
2022-08-18T17:14:23.214Z,39.62
2022-08-18T17:16:55.193Z,39.12
2022-08-18T17:19:30.092Z,38.98
2022-08-18T17:21:57.043Z,38.87
2022-08-18T17:24:31.759Z,38.40
2022-08-18T17:27:25.545Z,37.79
2022-08-18T17:30:00.687Z,38.18
2022-08-18T17:32:47.091Z,37.87
2022-08-18T17:35:20.537Z,38.45
2022-08-18T17:37:59.473Z,38.49
2022-08-18T17:40:46.331Z,38.30
2022-08-18T17:43:17.236Z,38.16
2022-08-18T17:45:47.606Z,38.37
2022-08-18T17:48:22.719Z,38.16
2022-08-18T17:51:14.801Z,38.49
2022-08-18T17:53:42.204Z,38.09
2022-08-18T17:56:22.223Z,38.18
2022-08-18T17:59:45.261Z,38.16
2022-08-18T18:02:19.024Z,37.60
2022-08-18T18:04:58.423Z,37.52
2022-08-18T18:07:38.529Z,37.75
2022-08-18T18:10:15.635Z,37.66
2022-08-18T18:12:42.567Z,36.72
2022-08-18T18:15:12.094Z,36.86
2022-08-18T18:17:41.398Z,37.45
2022-08-18T18:20:38.199Z,37.38
2022-08-18T18:23:33.075Z,37.58
2022-08-18T18:26:00.044Z,36.59
2022-08-18T18:28:30.700Z,36.63
2022-08-18T18:30:59.504Z,37.03
2022-08-18T18:33:30.656Z,37.12
2022-08-18T18:35:59.740Z,37.32
2022-08-18T18:38:33.409Z,37.20
2022-08-18T18:41:03.122Z,37.53
2022-08-18T18:43:39.635Z,37.08
2022-08-18T18:46:31.333Z,37.17
2022-08-18T18:49:15.941Z,36.71
2022-08-18T18:51:58.019Z,36.75
2022-08-18T18:54:33.094Z,36.20
2022-08-18T18:57:00.590Z,35.95
2022-08-18T18:59:35.501Z,36.07
2022-08-18T19:02:33.172Z,36.15
2022-08-18T19:05:22.923Z,35.61
2022-08-18T19:07:59.585Z,35.81
2022-08-18T19:10:49.575Z,35.58
2022-08-18T19:13:32.212Z,35.64
2022-08-18T19:16:23.338Z,35.73
2022-08-18T19:18:57.785Z,36.06
2022-08-18T19:22:03.728Z,35.53
2022-08-18T19:24:30.185Z,35.86
2022-08-18T19:27:00.712Z,35.38
2022-08-18T19:29:32.396Z,35.25
2022-08-18T19:32:07.939Z,35.26
2022-08-18T19:34:51.541Z,35.18
2022-08-18T19:37:31.663Z,34.77
2022-08-18T19:40:37.248Z,34.98
2022-08-18T19:43:12.636Z,35.50
2022-08-18T19:46:01.996Z,35.65
2022-08-18T19:48:35.025Z,35.23
2022-08-18T19:51:14.274Z,35.25
2022-08-18T19:54:06.913Z,35.25
2022-08-18T19:56:44.383Z,35.53
2022-08-18T19:59:34.050Z,35.56
2022-08-18T20:02:35.335Z,35.04
2022-08-18T20:05:44.028Z,35.23
2022-08-18T20:08:29.265Z,35.10
2022-08-18T20:11:15.504Z,34.39
2022-08-18T20:13:44.729Z,35.13
2022-08-18T20:16:24.672Z,35.28
2022-08-18T20:18:57.545Z,34.73
2022-08-18T20:21:41.482Z,34.24
2022-08-18T20:24:32.875Z,34.44
2022-08-18T20:27:30.222Z,34.94
2022-08-18T20:30:22.330Z,34.80
2022-08-18T20:33:10.462Z,34.63
2022-08-18T20:35:52.515Z,34.35
2022-08-18T20:38:28.245Z,33.53
2022-08-18T20:40:55.929Z,33.98
2022-08-18T20:43:33.729Z,34.04
2022-08-18T20:46:18.504Z,34.14
2022-08-18T20:49:06.635Z,33.79
2022-08-18T20:51:39.621Z,34.51
2022-08-18T20:54:28.453Z,34.03
2022-08-18T20:57:00.978Z,33.99
2022-08-18T20:59:39.237Z,33.77
2022-08-18T21:02:24.354Z,34.01
2022-08-18T21:04:54.657Z,34.46
2022-08-18T21:07:36.400Z,34.29
2022-08-18T21:10:13.518Z,34.27
2022-08-18T21:12:52.554Z,34.28
2022-08-18T21:15:28.558Z,33.87
2022-08-18T21:18:00.500Z,34.11
2022-08-18T21:20:28.716Z,33.99
2022-08-18T21:23:06.826Z,33.94
2022-08-18T21:25:34.276Z,34.07
2022-08-18T21:28:04.041Z,33.76
2022-08-18T21:30:32.142Z,33.64
2022-08-18T21:32:59.182Z,33.54
2022-08-18T21:35:34.198Z,33.74
2022-08-18T21:38:05.772Z,33.70
2022-08-18T21:40:39.210Z,33.20
2022-08-18T21:43:07.646Z,32.64
2022-08-18T21:45:47.796Z,32.73
2022-08-18T21:48:15.177Z,33.72
2022-08-18T21:50:51.268Z,33.89
2022-08-18T21:53:28.283Z,33.70
2022-08-18T21:55:56.505Z,32.67
2022-08-18T21:58:32.800Z,32.71
2022-08-18T22:01:10.970Z,33.58
2022-08-18T22:03:52.577Z,33.85
2022-08-18T22:06:40.648Z,33.69
2022-08-18T22:09:29.128Z,33.23
2022-08-18T22:12:45.015Z,32.84
2022-08-18T22:15:14.849Z,33.02
2022-08-18T22:17:43.460Z,32.84
2022-08-18T22:20:48.770Z,33.11
2022-08-18T22:23:34.089Z,33.11
2022-08-18T22:26:26.599Z,33.53
2022-08-18T22:29:19.022Z,33.54
2022-08-18T22:31:48.536Z,33.27
2022-08-18T22:34:28.015Z,33.78
2022-08-18T22:37:00.846Z,33.83
2022-08-18T22:39:46.465Z,33.36
2022-08-18T22:42:15.005Z,33.24
2022-08-18T22:44:42.568Z,33.72
2022-08-18T22:47:10.393Z,33.81
2022-08-18T22:49:37.331Z,33.79
2022-08-18T22:52:08.917Z,33.15
2022-08-18T22:54:35.849Z,33.27
2022-08-18T22:57:02.873Z,33.33
2022-08-18T22:59:33.458Z,33.02
2022-08-18T23:02:01.324Z,32.61
2022-08-18T23:04:28.350Z,31.67
2022-08-18T23:06:55.914Z,31.60
2022-08-18T23:09:28.590Z,31.15
2022-08-18T23:11:59.328Z,31.24
2022-08-18T23:14:26.613Z,31.10
2022-08-18T23:16:53.539Z,31.16
2022-08-18T23:19:21.427Z,31.66
2022-08-18T23:21:48.992Z,32.30
2022-08-18T23:24:17.292Z,31.89
2022-08-18T23:26:44.385Z,31.70
2022-08-18T23:29:12.805Z,31.28
2022-08-18T23:31:41.231Z,31.27
2022-08-18T23:34:08.785Z,31.16
2022-08-18T23:36:41.255Z,31.37
2022-08-18T23:39:10.999Z,32.11
2022-08-18T23:41:38.505Z,31.64
2022-08-18T23:44:06.769Z,31.51
2022-08-18T23:46:34.053Z,31.40
2022-08-18T23:49:02.910Z,31.85
2022-08-18T23:51:37.577Z,30.78
2022-08-18T23:54:08.012Z,30.90
2022-08-18T23:56:36.302Z,31.63
2022-08-18T23:59:05.326Z,31.05
